createdAt,value
2017-07-18T00:00:06.678Z,15.4
2017-07-18T00:01:08.444Z,15.4
2017-07-18T00:02:10.162Z,15.4
2017-07-18T00:03:11.873Z,15.4
2017-07-18T00:04:13.526Z,15.4
2017-07-18T00:05:16.357Z,15.3
2017-07-18T00:06:18.076Z,15.4
2017-07-18T00:07:19.852Z,15.2
2017-07-18T00:08:21.572Z,15.3
2017-07-18T00:09:23.288Z,15.3
2017-07-18T00:10:25.007Z,15.3
2017-07-18T00:11:26.673Z,15.3
2017-07-18T00:12:28.395Z,15.3
2017-07-18T00:13:30.141Z,15.3
2017-07-18T00:14:31.860Z,15.2
2017-07-18T00:15:33.635Z,15.3
2017-07-18T00:16:35.410Z,15.2
2017-07-18T00:17:37.235Z,15.2
2017-07-18T00:18:38.942Z,15.2
2017-07-18T00:19:40.739Z,15.2
2017-07-18T00:20:42.469Z,15.2
2017-07-18T00:21:44.149Z,15.1
2017-07-18T00:22:45.862Z,15.1
2017-07-18T00:23:47.540Z,15.2
2017-07-18T00:24:49.264Z,15.1
2017-07-18T00:25:50.997Z,15.2
2017-07-18T00:26:52.713Z,15.2
2017-07-18T00:27:54.499Z,15.1
2017-07-18T00:28:56.235Z,15.1
2017-07-18T00:29:57.997Z,15.1
2017-07-18T00:30:59.647Z,15.1
2017-07-18T00:32:01.388Z,15.1
2017-07-18T00:33:03.104Z,15.1
2017-07-18T00:34:04.883Z,15.0
2017-07-18T00:35:06.613Z,15.1
2017-07-18T00:36:09.337Z,15.0
2017-07-18T00:37:11.050Z,15.0
2017-07-18T00:38:12.725Z,15.0
2017-07-18T00:39:14.445Z,15.0
2017-07-18T00:40:16.181Z,15.0
2017-07-18T00:41:17.918Z,14.9
2017-07-18T00:42:19.681Z,14.9
2017-07-18T00:43:21.394Z,15.0
2017-07-18T00:44:23.182Z,15.0
2017-07-18T00:45:24.829Z,15.0
2017-07-18T00:46:27.596Z,14.9
2017-07-18T00:47:29.317Z,15.0
2017-07-18T00:48:31.088Z,14.9
2017-07-18T00:49:32.802Z,14.9
2017-07-18T00:50:35.542Z,14.9
2017-07-18T00:51:37.264Z,14.9
2017-07-18T00:52:39.034Z,14.9
2017-07-18T00:53:40.761Z,14.7
2017-07-18T00:54:42.493Z,14.7
2017-07-18T00:55:44.226Z,14.7
2017-07-18T00:56:45.981Z,14.7
2017-07-18T00:57:47.636Z,14.8
2017-07-18T00:58:49.384Z,14.8
2017-07-18T00:59:51.034Z,14.7
2017-07-18T01:00:52.760Z,14.7
2017-07-18T01:01:54.486Z,14.7
2017-07-18T01:02:56.212Z,14.7
2017-07-18T01:03:57.933Z,14.7
2017-07-18T01:04:59.633Z,14.7
2017-07-18T01:06:01.338Z,14.7
2017-07-18T01:07:02.991Z,14.7
2017-07-18T01:08:04.700Z,14.7
2017-07-18T01:09:06.349Z,14.7
2017-07-18T01:10:08.101Z,14.7
2017-07-18T01:11:09.821Z,14.6
2017-07-18T01:12:11.547Z,14.6
2017-07-18T01:13:13.286Z,14.6
2017-07-18T01:14:15.014Z,14.6
2017-07-18T01:15:16.736Z,14.5
2017-07-18T01:16:18.384Z,14.6
2017-07-18T01:17:20.100Z,14.5
2017-07-18T01:18:21.755Z,14.5
2017-07-18T01:19:23.519Z,14.6
2017-07-18T01:20:25.227Z,14.6
2017-07-18T01:21:26.946Z,14.4
2017-07-18T01:22:28.666Z,14.5
2017-07-18T01:23:30.386Z,14.5
2017-07-18T01:24:32.107Z,14.4
2017-07-18T01:25:33.757Z,14.4
2017-07-18T01:26:35.474Z,14.5
2017-07-18T01:27:37.118Z,14.5
2017-07-18T01:28:38.830Z,14.4
2017-07-18T01:29:40.497Z,14.5
2017-07-18T01:30:42.215Z,14.4
2017-07-18T01:31:43.956Z,14.4
2017-07-18T01:32:45.708Z,14.5
2017-07-18T01:33:47.437Z,14.4
2017-07-18T01:34:49.124Z,14.4
2017-07-18T01:35:50.943Z,14.4
2017-07-18T01:36:52.651Z,14.3
2017-07-18T01:37:54.435Z,14.4
2017-07-18T01:38:56.142Z,14.3
2017-07-18T01:39:57.884Z,14.2
2017-07-18T01:40:59.648Z,14.3
2017-07-18T01:42:01.434Z,14.3
2017-07-18T01:43:03.141Z,14.3
2017-07-18T01:44:04.928Z,14.3
2017-07-18T01:45:06.646Z,14.3
2017-07-18T01:46:08.424Z,14.2
2017-07-18T01:47:10.071Z,14.2
2017-07-18T01:48:11.815Z,14.2
2017-07-18T01:49:13.551Z,14.3
2017-07-18T01:50:15.298Z,14.2
2017-07-18T01:51:17.021Z,14.2
2017-07-18T01:52:18.732Z,14.1
2017-07-18T01:53:20.460Z,14.1
2017-07-18T01:54:22.117Z,14.1
2017-07-18T01:55:23.838Z,14.1
2017-07-18T01:56:25.574Z,14.1
2017-07-18T01:57:27.292Z,14.1
2017-07-18T01:58:29.033Z,14.1
2017-07-18T01:59:30.805Z,14.0
2017-07-18T02:00:32.593Z,14.0
2017-07-18T02:01:34.233Z,14.0
2017-07-18T02:02:36.063Z,14.0
2017-07-18T02:03:37.783Z,14.0
2017-07-18T02:04:39.568Z,14.0
2017-07-18T02:05:41.289Z,14.0
2017-07-18T02:06:42.994Z,14.0
2017-07-18T02:07:44.720Z,14.0
2017-07-18T02:08:46.557Z,14.0
2017-07-18T02:09:48.311Z,13.9
2017-07-18T02:10:50.068Z,14.0
2017-07-18T02:11:51.715Z,14.0
2017-07-18T02:12:53.554Z,13.9
2017-07-18T02:13:55.281Z,13.9
2017-07-18T02:14:57.049Z,14.0
2017-07-18T02:15:58.775Z,14.0
2017-07-18T02:17:02.515Z,13.9
2017-07-18T02:18:04.181Z,13.9
2017-07-18T02:19:05.979Z,13.9
2017-07-18T02:20:07.629Z,13.9
2017-07-18T02:21:10.406Z,13.9
2017-07-18T02:22:12.127Z,13.9
2017-07-18T02:23:14.912Z,13.9
2017-07-18T02:24:16.565Z,13.9
2017-07-18T02:25:18.293Z,13.9
2017-07-18T02:26:19.940Z,13.9
2017-07-18T02:27:21.690Z,13.9
2017-07-18T02:28:23.405Z,13.8
2017-07-18T02:29:25.189Z,13.8
2017-07-18T02:30:26.904Z,13.9
2017-07-18T02:31:28.668Z,13.8
2017-07-18T02:32:30.379Z,13.8
2017-07-18T02:33:32.166Z,13.8
2017-07-18T02:34:33.895Z,13.7
2017-07-18T02:35:35.676Z,13.8
2017-07-18T02:36:37.411Z,13.8
2017-07-18T02:37:40.186Z,13.7
2017-07-18T02:38:41.852Z,13.7
2017-07-18T02:39:43.591Z,13.7
2017-07-18T02:40:45.311Z,13.7
2017-07-18T02:41:48.125Z,13.7
2017-07-18T02:42:49.846Z,13.7
2017-07-18T02:43:51.531Z,13.7
2017-07-18T02:44:53.245Z,13.6
2017-07-18T02:45:54.920Z,13.6
2017-07-18T02:46:56.633Z,13.6
2017-07-18T02:47:59.417Z,13.5
2017-07-18T02:49:01.143Z,13.5
2017-07-18T02:50:02.897Z,13.5
2017-07-18T02:51:04.591Z,13.6
2017-07-18T02:52:06.395Z,13.5
2017-07-18T02:53:08.118Z,13.5
2017-07-18T02:54:10.911Z,13.6
2017-07-18T02:55:12.631Z,13.6
2017-07-18T02:56:14.347Z,13.6
2017-07-18T02:57:16.077Z,13.6
2017-07-18T02:58:17.906Z,13.6
2017-07-18T02:59:19.627Z,13.5
2017-07-18T03:00:21.429Z,13.5
2017-07-18T03:01:23.163Z,13.5
2017-07-18T03:02:25.002Z,13.5
2017-07-18T03:03:26.728Z,13.5
2017-07-18T03:04:28.489Z,13.4
2017-07-18T03:05:30.206Z,13.5
2017-07-18T03:06:31.936Z,13.5
2017-07-18T03:07:33.661Z,13.5
2017-07-18T03:08:35.467Z,13.5
2017-07-18T03:09:37.188Z,13.5
2017-07-18T03:10:39.007Z,13.5
2017-07-18T03:11:40.716Z,13.5
2017-07-18T03:12:42.479Z,13.4
2017-07-18T03:13:44.142Z,13.5
2017-07-18T03:14:46.061Z,13.4
2017-07-18T03:15:47.778Z,13.5
2017-07-18T03:16:49.497Z,13.5
2017-07-18T03:17:51.221Z,13.5
2017-07-18T03:18:53.046Z,13.5
2017-07-18T03:19:54.759Z,13.4
2017-07-18T03:20:56.554Z,13.5
2017-07-18T03:21:58.262Z,13.5
2017-07-18T03:23:00.060Z,13.5
2017-07-18T03:24:01.780Z,13.5
2017-07-18T03:25:03.548Z,13.5
2017-07-18T03:26:05.261Z,13.5
2017-07-18T03:27:06.983Z,13.5
2017-07-18T03:28:08.707Z,13.4
2017-07-18T03:29:10.548Z,13.5
2017-07-18T03:30:12.273Z,13.5
2017-07-18T03:31:14.049Z,13.4
2017-07-18T03:32:15.751Z,13.5
2017-07-18T03:33:17.518Z,13.5
2017-07-18T03:34:19.235Z,13.5
2017-07-18T03:35:21.006Z,13.5
2017-07-18T03:36:22.730Z,13.4
2017-07-18T03:37:24.503Z,13.5
2017-07-18T03:38:26.234Z,13.4
2017-07-18T03:39:28.000Z,13.4
2017-07-18T03:40:29.743Z,13.5
2017-07-18T03:41:31.508Z,13.5
2017-07-18T03:42:33.238Z,13.5
2017-07-18T03:43:35.024Z,13.5
2017-07-18T03:44:36.680Z,13.5
2017-07-18T03:45:38.491Z,13.5
2017-07-18T03:46:40.221Z,13.5
2017-07-18T03:47:41.994Z,13.5
2017-07-18T03:48:43.704Z,13.6
2017-07-18T03:49:45.417Z,13.5
2017-07-18T03:50:47.140Z,13.6
2017-07-18T03:51:48.810Z,13.5
2017-07-18T03:52:50.536Z,13.6
2017-07-18T03:53:52.257Z,13.6
2017-07-18T03:54:54.045Z,13.6
2017-07-18T03:55:55.858Z,13.6
2017-07-18T03:56:57.512Z,13.6
2017-07-18T03:57:59.255Z,13.6
2017-07-18T03:59:00.910Z,13.6
2017-07-18T04:00:02.638Z,13.6
2017-07-18T04:01:04.359Z,13.5
2017-07-18T04:02:06.172Z,13.6
2017-07-18T04:03:07.889Z,13.6
2017-07-18T04:04:09.646Z,13.6
2017-07-18T04:05:11.377Z,13.5
2017-07-18T04:06:13.142Z,13.6
2017-07-18T04:07:14.849Z,13.6
2017-07-18T04:08:16.633Z,13.7
2017-07-18T04:09:18.371Z,13.7
2017-07-18T04:10:21.113Z,13.7
2017-07-18T04:11:22.794Z,13.6
2017-07-18T04:12:24.595Z,13.6
2017-07-18T04:13:26.319Z,13.6
2017-07-18T04:14:28.221Z,13.6
2017-07-18T04:15:29.934Z,13.7
2017-07-18T04:16:31.630Z,13.8
2017-07-18T04:17:33.360Z,13.8
2017-07-18T04:18:35.193Z,13.7
2017-07-18T04:19:36.946Z,13.8
2017-07-18T04:20:39.719Z,13.9
2017-07-18T04:21:41.371Z,13.8
2017-07-18T04:22:43.207Z,13.8
2017-07-18T04:23:44.963Z,13.8
2017-07-18T04:24:46.702Z,13.8
2017-07-18T04:25:48.431Z,13.8
2017-07-18T04:26:50.127Z,13.9
2017-07-18T04:27:51.850Z,13.9
2017-07-18T04:28:53.589Z,13.9
2017-07-18T04:29:55.322Z,13.9
2017-07-18T04:30:57.091Z,13.9
2017-07-18T04:31:58.762Z,13.9
2017-07-18T04:33:00.576Z,14.0
2017-07-18T04:34:03.141Z,14.0
2017-07-18T04:35:04.923Z,13.9
2017-07-18T04:36:06.636Z,14.0
2017-07-18T04:37:08.609Z,14.0
2017-07-18T04:38:10.271Z,14.0
2017-07-18T04:39:12.943Z,14.1
2017-07-18T04:40:14.650Z,14.1
2017-07-18T04:41:16.400Z,14.2
2017-07-18T04:42:18.131Z,14.1
2017-07-18T04:43:19.909Z,14.2
2017-07-18T04:44:24.389Z,14.2
2017-07-18T04:45:26.104Z,14.2
2017-07-18T04:46:27.918Z,14.3
2017-07-18T04:47:29.626Z,14.3
2017-07-18T04:48:31.342Z,14.3
2017-07-18T04:49:33.051Z,14.4
2017-07-18T04:50:34.809Z,14.4
2017-07-18T04:51:36.546Z,14.5
2017-07-18T04:52:38.299Z,14.5
2017-07-18T04:53:40.013Z,14.6
2017-07-18T04:54:41.808Z,14.6
2017-07-18T04:55:43.628Z,14.6
2017-07-18T04:56:45.381Z,14.7
2017-07-18T04:57:47.099Z,14.7
2017-07-18T04:58:48.839Z,14.9
2017-07-18T04:59:50.577Z,14.8
2017-07-18T05:00:52.231Z,14.9
2017-07-18T05:01:53.964Z,15.0
2017-07-18T05:02:55.681Z,15.0
2017-07-18T05:03:57.406Z,15.0
2017-07-18T05:04:59.134Z,15.0
2017-07-18T05:06:00.870Z,15.1
2017-07-18T05:07:02.639Z,15.1
2017-07-18T05:08:04.292Z,15.1
2017-07-18T05:09:06.033Z,15.1
2017-07-18T05:10:07.756Z,15.1
2017-07-18T05:11:09.482Z,15.1
2017-07-18T05:12:11.216Z,15.1
2017-07-18T05:13:12.977Z,15.2
2017-07-18T05:14:14.700Z,15.2
2017-07-18T05:15:16.371Z,15.2
2017-07-18T05:16:18.189Z,15.3
2017-07-18T05:17:19.934Z,15.2
2017-07-18T05:18:21.688Z,15.3
2017-07-18T05:19:23.405Z,15.3
2017-07-18T05:20:25.108Z,15.3
2017-07-18T05:21:26.851Z,15.3
2017-07-18T05:22:28.677Z,15.4
2017-07-18T05:23:30.400Z,15.4
2017-07-18T05:24:32.175Z,15.4
2017-07-18T05:25:33.857Z,15.4
2017-07-18T05:26:35.654Z,15.5
2017-07-18T05:27:37.374Z,15.5
2017-07-18T05:28:39.158Z,15.6
2017-07-18T05:29:40.877Z,15.6
2017-07-18T05:30:42.648Z,15.7
2017-07-18T05:31:44.369Z,15.7
2017-07-18T05:32:46.139Z,15.7
2017-07-18T05:33:47.858Z,15.7
2017-07-18T05:34:49.630Z,15.8
2017-07-18T05:35:51.349Z,15.8
2017-07-18T05:36:53.132Z,15.8
2017-07-18T05:37:54.786Z,15.9
2017-07-18T05:38:56.526Z,16.0
2017-07-18T05:39:58.239Z,16.1
2017-07-18T05:41:00.028Z,16.2
2017-07-18T05:42:01.733Z,16.3
2017-07-18T05:43:03.448Z,16.4
2017-07-18T05:44:05.170Z,16.6
2017-07-18T05:45:06.843Z,16.8
2017-07-18T05:46:08.560Z,16.9
2017-07-18T05:47:10.308Z,17.1
2017-07-18T05:48:12.026Z,17.2
2017-07-18T05:49:13.792Z,17.5
2017-07-18T05:50:15.503Z,17.7
2017-07-18T05:51:17.289Z,17.8
2017-07-18T05:52:19.016Z,17.9
2017-07-18T05:53:20.786Z,18.1
2017-07-18T05:54:22.500Z,18.2
2017-07-18T05:55:24.213Z,18.4
2017-07-18T05:56:25.866Z,18.4
2017-07-18T05:57:27.620Z,18.4
2017-07-18T05:58:29.259Z,18.5
2017-07-18T05:59:31.005Z,18.5
2017-07-18T06:00:32.734Z,18.6
2017-07-18T06:01:34.637Z,18.5
2017-07-18T06:02:36.357Z,18.6
2017-07-18T06:03:38.163Z,18.6
2017-07-18T06:04:39.900Z,18.7
2017-07-18T06:05:41.671Z,18.6
2017-07-18T06:06:43.409Z,18.6
2017-07-18T06:07:45.182Z,18.7
2017-07-18T06:08:46.941Z,18.7
2017-07-18T06:09:48.759Z,18.8
2017-07-18T06:10:50.557Z,19.0
2017-07-18T06:11:52.337Z,19.0
2017-07-18T06:12:54.007Z,18.9
2017-07-18T06:13:55.839Z,19.0
2017-07-18T06:14:57.581Z,19.0
2017-07-18T06:15:59.393Z,18.9
2017-07-18T06:17:01.139Z,19.0
2017-07-18T06:18:02.850Z,19.0
2017-07-18T06:19:04.630Z,19.0
2017-07-18T06:20:06.343Z,19.0
2017-07-18T06:21:08.065Z,19.1
2017-07-18T06:22:10.486Z,19.3
2017-07-18T06:23:12.249Z,19.4
2017-07-18T06:24:14.018Z,19.5
2017-07-18T06:25:15.776Z,19.6
2017-07-18T06:26:17.501Z,19.6
2017-07-18T06:27:19.182Z,19.5
2017-07-18T06:28:20.887Z,19.6
2017-07-18T06:29:22.659Z,19.5
2017-07-18T06:30:24.386Z,19.5
2017-07-18T06:31:26.146Z,19.6
2017-07-18T06:32:27.838Z,19.6
2017-07-18T06:33:29.644Z,19.6
2017-07-18T06:34:31.295Z,19.5
2017-07-18T06:35:34.060Z,19.4
2017-07-18T06:36:35.792Z,19.6
2017-07-18T06:37:38.612Z,19.5
2017-07-18T06:38:40.325Z,19.6
2017-07-18T06:39:42.003Z,19.7
2017-07-18T06:40:43.730Z,19.7
2017-07-18T06:41:45.561Z,19.7
2017-07-18T06:42:47.281Z,19.6
2017-07-18T06:43:49.005Z,19.5
2017-07-18T06:44:50.801Z,19.5
2017-07-18T06:45:52.564Z,19.5
2017-07-18T06:46:54.293Z,19.3
2017-07-18T06:47:56.006Z,19.2
2017-07-18T06:48:57.733Z,19.2
2017-07-18T06:49:59.470Z,19.2
2017-07-18T06:51:01.225Z,19.3
2017-07-18T06:52:02.871Z,19.4
2017-07-18T06:53:04.518Z,19.5
2017-07-18T06:54:06.383Z,19.5
2017-07-18T06:55:08.036Z,19.5
2017-07-18T06:56:09.711Z,19.6
2017-07-18T06:57:11.373Z,19.6
2017-07-18T06:58:13.034Z,19.6
2017-07-18T06:59:14.744Z,19.6
2017-07-18T07:00:16.386Z,19.6
2017-07-18T07:01:18.187Z,19.6
2017-07-18T07:02:19.847Z,19.6
2017-07-18T07:03:21.501Z,19.8
2017-07-18T07:04:23.162Z,19.7
2017-07-18T07:05:24.859Z,19.6
2017-07-18T07:06:26.511Z,19.5
2017-07-18T07:07:28.242Z,19.4
2017-07-18T07:08:29.902Z,19.6
2017-07-18T07:09:31.596Z,19.6
2017-07-18T07:10:33.284Z,19.6
2017-07-18T07:11:34.983Z,19.6
2017-07-18T07:12:36.679Z,19.6
2017-07-18T07:13:38.359Z,19.7
2017-07-18T07:14:40.175Z,19.7
2017-07-18T07:15:41.886Z,19.8
2017-07-18T07:16:43.565Z,19.9
2017-07-18T07:17:45.349Z,20.0
2017-07-18T07:18:47.116Z,20.0
2017-07-18T07:20:03.986Z,20.1
2017-07-18T07:21:06.827Z,20.1
2017-07-18T07:22:08.469Z,20.3
2017-07-18T07:23:10.239Z,20.3
2017-07-18T07:24:11.894Z,20.4
2017-07-18T07:25:15.682Z,20.4
2017-07-18T07:26:17.332Z,20.4
2017-07-18T07:27:21.117Z,20.4
2017-07-18T07:28:22.771Z,20.5
2017-07-18T07:29:24.518Z,20.5
2017-07-18T07:30:26.174Z,20.6
2017-07-18T07:31:27.829Z,20.7
2017-07-18T07:32:29.483Z,20.7
2017-07-18T07:33:31.136Z,20.9
2017-07-18T07:34:32.796Z,20.8
2017-07-18T07:35:34.442Z,21.1
2017-07-18T07:36:36.112Z,21.0
2017-07-18T07:37:37.764Z,21.2
2017-07-18T07:38:39.446Z,21.4
2017-07-18T07:39:41.095Z,21.5
2017-07-18T07:40:42.751Z,21.7
2017-07-18T07:41:44.423Z,21.7
2017-07-18T07:42:46.083Z,21.7
2017-07-18T07:43:47.731Z,21.7
2017-07-18T07:44:49.432Z,21.8
2017-07-18T07:45:51.231Z,21.8
2017-07-18T07:46:52.907Z,21.8
2017-07-18T07:47:54.561Z,21.7
2017-07-18T07:48:56.212Z,21.7
2017-07-18T07:49:57.927Z,21.7
2017-07-18T07:50:59.603Z,21.7
2017-07-18T07:52:01.259Z,21.7
2017-07-18T07:53:02.919Z,21.7
2017-07-18T07:54:06.340Z,21.7
2017-07-18T07:55:08.067Z,21.7
2017-07-18T07:56:09.757Z,21.6
2017-07-18T07:57:11.406Z,21.6
2017-07-18T07:58:13.070Z,21.5
2017-07-18T07:59:14.724Z,21.5
2017-07-18T08:00:16.385Z,21.4
2017-07-18T08:01:18.037Z,21.3
2017-07-18T08:02:19.691Z,21.4
2017-07-18T08:03:21.344Z,21.5
2017-07-18T08:04:22.996Z,21.6
2017-07-18T08:05:24.670Z,21.7
2017-07-18T08:06:26.328Z,21.7
2017-07-18T08:07:27.985Z,21.7
2017-07-18T08:08:29.655Z,21.7
2017-07-18T08:09:31.337Z,21.8
2017-07-18T08:10:33.076Z,21.8
2017-07-18T08:11:34.767Z,21.6
2017-07-18T08:12:37.468Z,21.8
2017-07-18T08:13:39.121Z,21.8
2017-07-18T08:14:41.886Z,21.9
2017-07-18T08:15:43.543Z,21.9
2017-07-18T08:16:45.314Z,22.0
2017-07-18T08:17:46.988Z,22.0
2017-07-18T08:18:48.766Z,22.0
2017-07-18T08:19:50.425Z,21.9
2017-07-18T08:20:52.162Z,21.9
2017-07-18T08:21:53.823Z,21.9
2017-07-18T08:22:55.558Z,21.8
2017-07-18T08:23:57.331Z,21.9
2017-07-18T08:24:59.052Z,21.8
2017-07-18T08:26:00.694Z,21.9
2017-07-18T08:27:02.355Z,21.8
2017-07-18T08:28:04.023Z,21.8
2017-07-18T08:29:05.730Z,21.7
2017-07-18T08:30:07.379Z,21.8
2017-07-18T08:31:10.146Z,21.7
2017-07-18T08:32:11.808Z,21.6
2017-07-18T08:33:13.538Z,21.6
2017-07-18T08:34:15.186Z,21.6
2017-07-18T08:35:16.980Z,21.6
2017-07-18T08:36:18.928Z,21.6
2017-07-18T08:37:20.721Z,21.7
2017-07-18T08:38:22.379Z,21.6
2017-07-18T08:39:25.165Z,21.5
2017-07-18T08:40:26.828Z,21.5
2017-07-18T08:41:28.566Z,21.4
2017-07-18T08:42:30.228Z,21.4
2017-07-18T08:43:31.938Z,21.4
2017-07-18T08:44:33.593Z,21.4
2017-07-18T08:45:35.331Z,21.4
2017-07-18T08:46:36.990Z,21.3
2017-07-18T08:47:38.726Z,21.4
2017-07-18T08:48:40.392Z,21.4
2017-07-18T08:49:42.135Z,21.4
2017-07-18T08:50:43.834Z,21.4
2017-07-18T08:51:45.665Z,21.3
2017-07-18T08:52:47.596Z,21.3
2017-07-18T08:53:50.339Z,21.4
2017-07-18T08:54:51.994Z,21.4
2017-07-18T08:55:53.767Z,21.3
2017-07-18T08:56:55.450Z,21.4
2017-07-18T08:57:57.225Z,21.6
2017-07-18T08:58:58.933Z,21.5
2017-07-18T09:00:00.728Z,21.6
2017-07-18T09:01:02.392Z,21.6
2017-07-18T09:02:05.161Z,21.6
2017-07-18T09:03:06.812Z,21.6
2017-07-18T09:04:08.557Z,21.6
2017-07-18T09:05:10.265Z,21.7
2017-07-18T09:06:14.104Z,21.7
2017-07-18T09:07:15.753Z,21.7
2017-07-18T09:08:17.501Z,21.6
2017-07-18T09:09:19.161Z,21.6
2017-07-18T09:10:20.962Z,21.6
2017-07-18T09:11:22.619Z,21.6
2017-07-18T09:12:25.379Z,21.6
2017-07-18T09:13:27.037Z,21.7
2017-07-18T09:14:28.784Z,21.8
2017-07-18T09:15:30.440Z,21.7
2017-07-18T09:16:32.169Z,21.6
2017-07-18T09:17:33.901Z,21.8
2017-07-18T09:18:36.682Z,21.7
2017-07-18T09:19:38.336Z,21.8
2017-07-18T09:20:39.993Z,21.8
2017-07-18T09:21:41.764Z,21.8
2017-07-18T09:22:43.430Z,21.9
2017-07-18T09:23:45.222Z,21.9
2017-07-18T09:24:46.971Z,22.0
2017-07-18T09:35:59.380Z,22.9
2017-07-18T09:37:01.026Z,22.9
2017-07-18T09:38:02.797Z,22.8
2017-07-18T09:39:04.468Z,22.7
2017-07-18T09:40:06.179Z,22.6
2017-07-18T09:41:07.839Z,22.5
2017-07-18T09:42:09.564Z,22.4
2017-07-18T09:43:11.222Z,22.3
2017-07-18T09:44:13.048Z,22.3
2017-07-18T09:45:14.706Z,22.3
2017-07-18T09:46:16.546Z,22.2
2017-07-18T09:47:18.197Z,22.1
2017-07-18T09:48:20.039Z,22.2
2017-07-18T09:49:21.690Z,22.2
2017-07-18T09:50:23.532Z,22.3
2017-07-18T09:51:25.191Z,22.3
2017-07-18T09:52:27.027Z,22.4
2017-07-18T09:53:28.680Z,22.3
2017-07-18T09:54:30.525Z,22.3
2017-07-18T09:55:32.174Z,22.5
2017-07-18T09:56:34.018Z,22.5
2017-07-18T09:57:35.679Z,22.5
2017-07-18T09:58:37.514Z,22.6
2017-07-18T09:59:39.167Z,22.6
2017-07-18T10:00:41.009Z,22.6
2017-07-18T10:01:42.663Z,22.6
2017-07-18T10:02:44.504Z,22.7
2017-07-18T10:03:46.156Z,22.8
2017-07-18T10:04:48.009Z,22.8
2017-07-18T10:05:49.680Z,22.9
2017-07-18T10:06:51.493Z,22.9
2017-07-18T10:07:53.145Z,23.1
2017-07-18T10:08:54.998Z,23.2
2017-07-18T10:09:56.655Z,23.2
2017-07-18T10:10:58.483Z,23.2
2017-07-18T10:12:00.139Z,23.1
2017-07-18T10:13:01.798Z,23.1
2017-07-18T10:14:03.450Z,23.1
2017-07-18T10:15:05.106Z,23.1
2017-07-18T10:16:06.815Z,23.1
2017-07-18T10:17:08.489Z,23.0
2017-07-18T10:18:10.149Z,23.1
2017-07-18T10:19:11.803Z,23.0
2017-07-18T10:20:13.460Z,23.0
2017-07-18T10:21:15.304Z,23.0
2017-07-18T10:22:16.937Z,23.1
2017-07-18T10:23:18.589Z,23.1
2017-07-18T10:24:20.281Z,23.1
2017-07-18T10:25:21.941Z,23.1
2017-07-18T10:26:23.687Z,23.1
2017-07-18T10:27:25.334Z,23.3
2017-07-18T10:28:27.064Z,23.2
2017-07-18T10:29:28.716Z,23.4
2017-07-18T10:30:30.486Z,23.5
2017-07-18T10:31:32.144Z,23.6
2017-07-18T10:32:33.853Z,23.6
2017-07-18T10:33:35.509Z,23.5
2017-07-18T10:34:37.249Z,23.5
2017-07-18T10:35:38.900Z,23.4
2017-07-18T10:36:40.550Z,23.3
2017-07-18T10:37:42.207Z,23.3
2017-07-18T10:38:43.869Z,23.2
2017-07-18T10:39:45.532Z,23.2
2017-07-18T10:40:47.203Z,23.3
2017-07-18T10:41:48.863Z,23.3
2017-07-18T10:42:50.528Z,23.4
2017-07-18T10:43:52.178Z,23.4
2017-07-18T10:44:53.898Z,23.4
2017-07-18T10:45:55.556Z,23.4
2017-07-18T10:46:57.290Z,23.4
2017-07-18T10:47:58.945Z,23.4
2017-07-18T10:49:00.675Z,23.4
2017-07-18T10:50:02.332Z,23.4
2017-07-18T10:51:04.075Z,23.5
2017-07-18T10:52:05.741Z,23.5
2017-07-18T10:53:07.784Z,23.5
2017-07-18T10:54:09.437Z,23.5
2017-07-18T10:55:11.173Z,23.4
2017-07-18T10:56:12.824Z,23.4
2017-07-18T10:57:14.561Z,23.4
2017-07-18T10:58:16.238Z,23.4
2017-07-18T10:59:17.957Z,23.4
2017-07-18T11:00:19.626Z,23.5
2017-07-18T11:01:21.391Z,23.6
2017-07-18T11:02:23.043Z,23.5
2017-07-18T11:03:24.748Z,23.6
2017-07-18T11:04:26.400Z,23.6
2017-07-18T11:05:28.139Z,23.7
2017-07-18T11:06:29.796Z,23.8
2017-07-18T11:07:31.536Z,23.8
2017-07-18T11:08:33.184Z,23.7
2017-07-18T11:09:34.916Z,23.7
2017-07-18T11:10:36.569Z,23.8
2017-07-18T11:11:38.311Z,23.8
2017-07-18T11:12:39.973Z,23.8
2017-07-18T11:13:41.701Z,23.9
2017-07-18T11:14:43.366Z,23.9
2017-07-18T11:15:45.096Z,24.0
2017-07-18T11:16:46.769Z,24.0
2017-07-18T11:17:48.485Z,23.9
2017-07-18T11:18:50.149Z,24.0
2017-07-18T11:19:51.890Z,24.0
2017-07-18T11:20:53.548Z,23.8
2017-07-18T11:21:55.275Z,23.9
2017-07-18T11:22:56.933Z,23.9
2017-07-18T11:23:58.668Z,24.0
2017-07-18T11:25:00.319Z,24.0
2017-07-18T11:26:02.077Z,24.1
2017-07-18T11:27:03.732Z,24.1
2017-07-18T11:28:05.451Z,24.1
2017-07-18T11:29:07.108Z,24.1
2017-07-18T11:30:08.846Z,24.2
2017-07-18T11:31:10.504Z,24.2
2017-07-18T11:32:12.236Z,24.2
2017-07-18T11:33:13.887Z,24.2
2017-07-18T11:34:15.633Z,24.1
2017-07-18T11:35:17.296Z,24.2
2017-07-18T11:36:19.023Z,24.3
2017-07-18T11:37:20.679Z,24.2
2017-07-18T11:38:28.048Z,24.2
2017-07-18T11:39:29.704Z,24.2
2017-07-18T11:40:31.452Z,24.1
2017-07-18T11:41:33.128Z,24.1
2017-07-18T11:42:34.839Z,24.0
2017-07-18T11:43:36.492Z,24.1
2017-07-18T11:44:38.226Z,24.1
2017-07-18T11:45:39.888Z,24.1
2017-07-18T11:46:41.618Z,24.1
2017-07-18T11:47:43.272Z,24.1
2017-07-18T11:48:45.031Z,24.1
2017-07-18T11:49:46.683Z,24.3
2017-07-18T11:50:48.404Z,24.3
2017-07-18T11:51:50.066Z,24.2
2017-07-18T11:52:51.799Z,24.2
2017-07-18T11:53:53.482Z,24.3
2017-07-18T11:54:55.188Z,24.3
2017-07-18T11:55:56.845Z,24.3
2017-07-18T11:56:58.584Z,24.4
2017-07-18T11:58:00.258Z,24.4
2017-07-18T11:59:02.012Z,24.4
2017-07-18T12:00:03.670Z,24.4
2017-07-18T12:01:05.520Z,24.5
2017-07-18T12:02:07.179Z,24.5
2017-07-18T12:03:09.002Z,24.5
2017-07-18T12:04:10.658Z,24.5
2017-07-18T12:05:12.499Z,24.5
2017-07-18T12:06:14.169Z,24.5
2017-07-18T12:07:15.991Z,24.5
2017-07-18T12:08:17.648Z,24.7
2017-07-18T12:09:19.508Z,24.7
2017-07-18T12:10:21.167Z,24.7
2017-07-18T12:11:22.830Z,24.8
2017-07-18T12:12:24.559Z,24.8
2017-07-18T12:13:26.269Z,24.7
2017-07-18T12:14:27.946Z,24.8
2017-07-18T12:15:29.662Z,24.7
2017-07-18T12:16:31.407Z,24.8
2017-07-18T12:17:33.121Z,24.9
2017-07-18T12:18:34.874Z,24.9
2017-07-18T12:19:36.597Z,25.0
2017-07-18T12:20:38.354Z,24.9
2017-07-18T12:21:40.055Z,25.0
2017-07-18T12:22:41.855Z,25.1
2017-07-18T12:23:43.568Z,25.1
2017-07-18T12:24:45.344Z,25.1
2017-07-18T12:25:47.069Z,25.0
2017-07-18T12:26:48.779Z,25.0
2017-07-18T12:27:50.524Z,25.0
2017-07-18T12:28:52.183Z,25.0
2017-07-18T12:29:53.909Z,25.1
2017-07-18T12:30:55.728Z,25.2
2017-07-18T12:31:57.465Z,25.1
2017-07-18T12:32:59.233Z,25.2
2017-07-18T12:34:00.890Z,25.3
2017-07-18T12:35:02.725Z,25.3
2017-07-18T12:36:04.455Z,25.3
2017-07-18T12:37:06.229Z,25.3
2017-07-18T12:38:07.946Z,25.3
2017-07-18T12:39:09.707Z,25.2
2017-07-18T12:40:11.489Z,25.2
2017-07-18T12:41:13.302Z,25.3
2017-07-18T12:42:15.041Z,25.2
2017-07-18T12:43:16.801Z,25.3
2017-07-18T12:44:18.468Z,25.3
2017-07-18T12:45:20.309Z,25.5
2017-07-18T12:46:22.032Z,25.4
2017-07-18T12:47:23.806Z,25.5
2017-07-18T12:48:25.536Z,25.5
2017-07-18T12:49:27.227Z,25.6
2017-07-18T12:50:28.947Z,25.5
2017-07-18T12:51:30.651Z,25.4
2017-07-18T12:52:32.378Z,25.4
2017-07-18T12:53:34.170Z,25.4
2017-07-18T12:54:35.901Z,25.3
2017-07-18T12:55:37.664Z,25.4
2017-07-18T12:56:39.376Z,25.4
2017-07-18T12:57:41.173Z,25.5
2017-07-18T12:58:42.907Z,25.4
2017-07-18T12:59:44.676Z,25.4
2017-07-18T13:00:46.404Z,25.5
2017-07-18T13:01:48.149Z,25.5
2017-07-18T13:02:49.943Z,25.6
2017-07-18T13:03:51.660Z,25.6
2017-07-18T13:04:53.418Z,25.6
2017-07-18T13:05:55.250Z,25.5
2017-07-18T13:06:56.916Z,25.5
2017-07-18T13:07:58.648Z,25.5
2017-07-18T13:09:00.297Z,25.5
2017-07-18T13:10:02.141Z,25.6
2017-07-18T13:11:03.872Z,25.6
2017-07-18T13:12:05.660Z,25.7
2017-07-18T13:13:07.393Z,25.8
2017-07-18T13:14:09.269Z,25.7
2017-07-18T13:15:10.987Z,25.8
2017-07-18T13:16:12.799Z,25.8
2017-07-18T13:17:14.477Z,25.8
2017-07-18T13:18:16.317Z,25.7
2017-07-18T13:19:18.104Z,25.7
2017-07-18T13:20:19.941Z,25.8
2017-07-18T13:21:21.709Z,25.8
2017-07-18T13:22:23.484Z,25.8
2017-07-18T13:23:25.224Z,25.8
2017-07-18T13:24:26.987Z,25.8
2017-07-18T13:25:28.698Z,25.8
2017-07-18T13:26:30.480Z,25.8
2017-07-18T13:27:32.141Z,25.9
2017-07-18T13:28:33.998Z,25.9
2017-07-18T13:29:35.729Z,25.9
2017-07-18T13:30:37.474Z,25.9
2017-07-18T13:31:39.220Z,25.9
2017-07-18T13:32:40.902Z,26.0
2017-07-18T13:33:42.630Z,26.1
2017-07-18T13:34:44.455Z,26.1
2017-07-18T13:35:46.182Z,26.2
2017-07-18T13:36:47.917Z,26.2
2017-07-18T13:37:49.597Z,26.2
2017-07-18T13:38:51.421Z,26.3
2017-07-18T13:39:53.141Z,26.2
2017-07-18T13:40:54.928Z,26.1
2017-07-18T13:41:56.653Z,26.1
2017-07-18T13:42:58.364Z,26.0
2017-07-18T13:44:00.091Z,26.1
2017-07-18T13:45:01.999Z,26.1
2017-07-18T13:46:03.743Z,26.0
2017-07-18T13:47:05.503Z,26.1
2017-07-18T13:48:07.166Z,26.2
2017-07-18T13:49:08.888Z,26.2
2017-07-18T13:50:10.608Z,26.2
2017-07-18T13:51:12.411Z,26.3
2017-07-18T13:52:14.176Z,26.3